createdAt,value
2023-03-22T00:00:35.391Z,25.49
2023-03-22T00:04:35.370Z,25.48
2023-03-22T00:08:35.392Z,25.45
2023-03-22T00:12:35.401Z,25.39
2023-03-22T00:16:35.411Z,25.45
2023-03-22T00:20:35.360Z,25.36
2023-03-22T00:24:35.334Z,25.40
2023-03-22T00:28:35.386Z,25.39
2023-03-22T00:32:35.359Z,25.42
2023-03-22T00:36:35.340Z,25.37
2023-03-22T00:40:35.346Z,25.37
2023-03-22T00:44:35.339Z,25.40
2023-03-22T00:48:35.354Z,25.39
2023-03-22T00:52:35.356Z,25.33
2023-03-22T00:56:35.346Z,25.30
2023-03-22T01:00:35.346Z,25.32
2023-03-22T01:04:35.388Z,25.29
2023-03-22T01:08:35.447Z,25.32
2023-03-22T01:12:35.360Z,25.30
2023-03-22T01:16:35.394Z,25.23
2023-03-22T01:20:35.368Z,25.27
2023-03-22T01:24:35.391Z,25.29
2023-03-22T01:28:35.383Z,25.26
2023-03-22T01:32:35.413Z,25.16
2023-03-22T01:36:35.395Z,25.10
2023-03-22T01:40:35.425Z,25.19
2023-03-22T01:44:35.394Z,25.14
2023-03-22T01:48:35.436Z,25.11
2023-03-22T01:52:35.488Z,25.06
2023-03-22T01:56:35.463Z,25.06
2023-03-22T02:00:35.476Z,25.00
2023-03-22T02:04:35.522Z,24.99
2023-03-22T02:08:35.532Z,24.94
2023-03-22T02:12:35.508Z,24.91
2023-03-22T02:16:35.506Z,24.95
2023-03-22T02:20:35.483Z,24.90
2023-03-22T02:24:35.476Z,24.89
2023-03-22T02:28:35.508Z,24.88
2023-03-22T02:32:35.462Z,24.86
2023-03-22T02:36:35.486Z,24.80
2023-03-22T02:40:35.474Z,24.80
2023-03-22T02:44:35.480Z,24.78
2023-03-22T02:48:35.455Z,24.74
2023-03-22T02:52:35.480Z,24.78
2023-03-22T02:56:35.492Z,24.70
2023-03-22T03:00:35.508Z,24.67
2023-03-22T03:04:35.541Z,24.66
2023-03-22T03:08:35.530Z,24.70
2023-03-22T03:12:35.555Z,24.67
2023-03-22T03:16:35.719Z,24.64
2023-03-22T03:20:35.560Z,24.58
2023-03-22T03:24:35.595Z,24.60
2023-03-22T03:28:35.586Z,24.53
2023-03-22T03:32:35.587Z,24.55
2023-03-22T03:36:35.603Z,24.55
2023-03-22T03:40:35.636Z,24.48
2023-03-22T03:44:35.621Z,24.45
2023-03-22T03:48:35.634Z,24.47
2023-03-22T03:52:35.669Z,24.41
2023-03-22T03:56:35.678Z,24.42
2023-03-22T04:00:35.694Z,24.42
2023-03-22T04:04:35.759Z,24.35
2023-03-22T04:08:35.705Z,24.31
2023-03-22T04:12:35.727Z,24.30
2023-03-22T04:16:35.696Z,24.30
2023-03-22T04:20:35.760Z,24.24
2023-03-22T04:24:35.684Z,24.20
2023-03-22T04:28:35.660Z,24.18
2023-03-22T04:32:35.673Z,24.19
2023-03-22T04:36:35.663Z,24.15
2023-03-22T04:40:35.666Z,24.10
2023-03-22T04:44:35.680Z,24.06
2023-03-22T04:48:35.728Z,23.98
2023-03-22T04:52:35.756Z,23.98
2023-03-22T04:56:35.776Z,23.97
2023-03-22T05:00:35.791Z,23.92
2023-03-22T05:04:35.840Z,23.92
2023-03-22T05:08:35.885Z,23.89
2023-03-22T05:12:35.918Z,23.86
2023-03-22T05:16:35.965Z,23.82
2023-03-22T05:20:36.012Z,23.76
2023-03-22T05:24:36.052Z,23.73
2023-03-22T05:28:36.071Z,23.68
2023-03-22T05:32:36.129Z,23.60
2023-03-22T05:36:36.161Z,23.69
2023-03-22T05:40:36.216Z,23.70
2023-03-22T05:44:36.237Z,23.66
2023-03-22T05:48:36.299Z,23.56
2023-03-22T05:52:36.323Z,23.61
2023-03-22T05:56:36.393Z,23.60
2023-03-22T06:00:36.334Z,23.49
2023-03-22T06:04:36.357Z,23.36
2023-03-22T06:08:36.522Z,23.25
2023-03-22T06:12:36.471Z,23.08
2023-03-22T06:16:36.450Z,22.97
2023-03-22T06:20:36.401Z,22.99
2023-03-22T06:24:36.389Z,22.92
2023-03-22T06:28:36.342Z,22.83
2023-03-22T06:32:36.357Z,23.36
2023-03-22T06:36:36.245Z,24.05
2023-03-22T06:40:36.278Z,24.42
2023-03-22T06:44:36.271Z,23.78
2023-03-22T06:48:36.185Z,23.95
2023-03-22T06:52:36.106Z,24.08
2023-03-22T06:56:36.078Z,24.34
2023-03-22T07:00:36.213Z,24.37
2023-03-22T07:04:36.504Z,24.24
2023-03-22T07:08:36.649Z,24.51
2023-03-22T07:12:36.791Z,24.00
2023-03-22T07:16:36.863Z,23.88
2023-03-22T07:20:37.039Z,23.52
2023-03-22T07:24:44.575Z,23.66
2023-03-22T07:28:37.943Z,23.51
2023-03-22T07:32:36.975Z,23.57
2023-03-22T07:36:37.101Z,23.58
2023-03-22T07:40:37.458Z,24.20
2023-03-22T07:44:37.345Z,24.59
2023-03-22T07:48:37.429Z,24.57
2023-03-22T07:52:37.680Z,24.22
2023-03-22T07:56:37.608Z,23.96
2023-03-22T08:00:38.123Z,24.29
2023-03-22T08:04:37.552Z,24.66
2023-03-22T08:08:37.499Z,24.65
2023-03-22T08:12:37.472Z,24.87
2023-03-22T08:16:37.539Z,24.83
2023-03-22T08:20:37.705Z,24.93
2023-03-22T08:24:37.379Z,24.94
2023-03-22T08:28:37.542Z,24.49
2023-03-22T08:32:37.844Z,25.11
2023-03-22T08:36:37.352Z,24.40
2023-03-22T08:40:37.878Z,24.34
2023-03-22T08:44:37.367Z,24.07
2023-03-22T08:48:37.503Z,24.26
2023-03-22T08:52:37.605Z,24.27
2023-03-22T08:56:37.745Z,24.18
2023-03-22T09:00:48.191Z,24.78
2023-03-22T09:04:38.878Z,24.17
2023-03-22T09:08:37.831Z,24.40
2023-03-22T09:12:38.441Z,24.03
2023-03-22T09:16:38.463Z,23.78
2023-03-22T09:20:38.565Z,23.83
2023-03-22T09:24:38.330Z,24.10
2023-03-22T09:28:38.582Z,24.08
2023-03-22T09:32:38.617Z,23.98
2023-03-22T09:36:38.812Z,23.84
2023-03-22T09:40:39.361Z,23.78
2023-03-22T09:44:39.196Z,24.09
2023-03-22T09:48:39.853Z,24.01
2023-03-22T09:52:39.557Z,23.94
2023-03-22T09:56:39.893Z,23.97
2023-03-22T10:00:39.836Z,23.85
2023-03-22T10:04:39.878Z,23.92
2023-03-22T10:08:39.789Z,23.59
2023-03-22T10:12:39.793Z,23.46
2023-03-22T10:16:39.799Z,23.57
2023-03-22T10:20:39.787Z,23.40
2023-03-22T10:24:40.877Z,23.32
2023-03-22T10:28:40.056Z,24.15
2023-03-22T10:32:54.760Z,24.36
2023-03-22T10:36:41.037Z,24.10
2023-03-22T10:40:39.941Z,23.87
2023-03-22T10:44:40.375Z,23.88
2023-03-22T10:48:40.017Z,23.86
2023-03-22T10:52:40.189Z,23.78
2023-03-22T10:56:40.474Z,23.85
2023-03-22T11:00:42.332Z,24.01
2023-03-22T11:04:40.341Z,23.83
2023-03-22T11:08:40.301Z,23.79
2023-03-22T11:12:40.429Z,23.65
2023-03-22T11:16:40.238Z,23.36
2023-03-22T11:20:40.643Z,23.92
2023-03-22T11:24:40.149Z,23.39
2023-03-22T11:28:40.152Z,23.55
2023-03-22T11:32:40.158Z,23.49
2023-03-22T11:36:40.042Z,23.46
2023-03-22T11:40:40.334Z,23.47
2023-03-22T11:44:39.983Z,23.43
2023-03-22T11:48:40.027Z,23.38
2023-03-22T11:52:39.937Z,23.43
2023-03-22T11:56:39.863Z,23.10
2023-03-22T12:00:39.831Z,23.08
2023-03-22T12:04:39.878Z,23.16
2023-03-22T12:08:39.910Z,22.89
2023-03-22T12:12:39.740Z,22.93
2023-03-22T12:16:39.970Z,22.59
2023-03-22T12:20:40.131Z,22.52
2023-03-22T12:24:40.798Z,22.89
2023-03-22T12:28:39.778Z,22.92
2023-03-22T12:32:39.817Z,22.40
2023-03-22T12:36:39.880Z,21.54
2023-03-22T12:40:40.363Z,21.47
2023-03-22T12:44:40.070Z,22.80
2023-03-22T12:48:40.240Z,23.15
2023-03-22T12:52:45.733Z,23.26
2023-03-22T12:56:41.224Z,23.14
2023-03-22T13:00:40.437Z,23.12
2023-03-22T13:04:40.194Z,23.02
2023-03-22T13:08:40.510Z,22.97
2023-03-22T13:12:40.454Z,22.74
2023-03-22T13:16:40.469Z,22.76
2023-03-22T13:20:40.821Z,22.65
2023-03-22T13:24:40.425Z,22.68
2023-03-22T13:28:40.542Z,22.60
2023-03-22T13:32:40.652Z,22.51
2023-03-22T13:36:40.748Z,22.56
2023-03-22T13:40:40.983Z,22.29
2023-03-22T13:44:40.949Z,22.34
2023-03-22T13:48:41.155Z,22.46
2023-03-22T13:52:41.149Z,22.42
2023-03-22T13:56:41.277Z,22.35
2023-03-22T14:00:41.620Z,22.20
2023-03-22T14:04:41.441Z,22.26
2023-03-22T14:08:41.539Z,22.23
2023-03-22T14:12:41.636Z,22.35
2023-03-22T14:16:41.757Z,22.28
2023-03-22T14:20:41.941Z,22.24
2023-03-22T14:49:43.435Z,21.99
2023-03-22T14:53:43.699Z,21.98
2023-03-22T14:57:43.696Z,21.93
2023-03-22T15:01:43.352Z,21.99
2023-03-22T15:05:43.675Z,21.84
2023-03-22T15:09:43.282Z,21.95
2023-03-22T15:13:43.213Z,21.95
2023-03-22T15:17:43.232Z,21.96
2023-03-22T15:21:43.156Z,21.96
2023-03-22T15:25:43.145Z,21.93
2023-03-22T15:29:43.105Z,22.00
2023-03-22T15:33:43.055Z,22.06
2023-03-22T15:37:43.010Z,22.02
2023-03-22T15:41:43.421Z,22.05
2023-03-22T15:45:43.365Z,22.03
2023-03-22T15:49:43.364Z,22.08
2023-03-22T15:53:43.553Z,22.11
2023-03-22T15:57:43.714Z,22.17
2023-03-22T16:01:43.879Z,22.18
2023-03-22T16:05:44.091Z,22.27
2023-03-22T16:09:44.254Z,22.26
2023-03-22T16:13:44.474Z,22.34
2023-03-22T16:17:44.634Z,22.38
2023-03-22T16:21:44.833Z,22.38
2023-03-22T16:25:45.234Z,22.45
2023-03-22T16:29:45.203Z,22.44
2023-03-22T16:33:45.377Z,22.58
2023-03-22T16:37:45.531Z,22.52
2023-03-22T16:41:45.681Z,22.68
2023-03-22T16:45:45.879Z,22.67
2023-03-22T16:49:46.001Z,22.71
2023-03-22T16:53:46.147Z,22.70
2023-03-22T16:57:46.319Z,22.71
2023-03-22T17:01:46.543Z,22.83
2023-03-22T17:05:46.663Z,22.80
2023-03-22T17:09:46.817Z,22.78
2023-03-22T17:13:47.034Z,22.95
2023-03-22T17:17:47.378Z,22.83
2023-03-22T17:21:47.321Z,22.88
2023-03-22T17:25:47.496Z,22.72
2023-03-22T17:29:47.664Z,22.78
2023-03-22T17:33:47.893Z,22.71
2023-03-22T17:37:49.337Z,22.69
2023-03-22T17:41:48.320Z,22.72
2023-03-22T17:46:29.236Z,22.65
2023-03-22T17:49:49.444Z,22.73
2023-03-22T17:54:30.792Z,22.69
2023-03-22T18:01:48.387Z,22.79
2023-03-22T18:05:48.321Z,22.78
2023-03-22T18:09:48.305Z,22.85
2023-03-22T18:13:52.172Z,22.88
2023-03-22T18:17:49.220Z,22.93
2023-03-22T18:21:48.169Z,22.91
2023-03-22T18:25:48.153Z,22.93
2023-03-22T18:29:48.144Z,23.08
2023-03-22T18:33:48.066Z,23.02
2023-03-22T18:41:49.129Z,23.13
2023-03-22T18:45:56.930Z,23.17
2023-03-22T18:49:48.932Z,23.28
2023-03-22T18:53:47.930Z,23.27
2023-03-22T18:57:47.891Z,23.34
2023-03-22T19:01:52.492Z,23.36
2023-03-22T19:05:49.262Z,23.36
2023-03-22T19:09:48.233Z,23.37
2023-03-22T19:14:35.039Z,23.44
2023-03-22T19:17:48.974Z,23.47
2023-03-22T19:21:48.239Z,23.45
2023-03-22T19:25:48.238Z,23.51
2023-03-22T19:29:48.267Z,23.55
2023-03-22T19:33:55.841Z,23.54
2023-03-22T19:37:49.248Z,23.54
2023-03-22T19:42:03.554Z,23.56
2023-03-22T19:45:49.249Z,23.54
2023-03-22T19:49:47.939Z,23.56
2023-03-22T19:54:22.382Z,23.58
2023-03-22T19:57:48.864Z,23.61
2023-03-22T20:01:47.890Z,23.64
2023-03-22T20:05:50.873Z,23.59
2023-03-22T20:09:47.804Z,23.66
2023-03-22T20:13:47.757Z,23.64
2023-03-22T20:17:47.745Z,23.68
2023-03-22T20:21:47.697Z,23.65
2023-03-22T20:25:47.661Z,23.72
2023-03-22T20:29:47.629Z,23.66
2023-03-22T20:33:47.591Z,23.66
2023-03-22T20:37:47.552Z,23.66
2023-03-22T20:41:47.730Z,23.68
2023-03-22T20:45:48.016Z,23.65
2023-03-22T20:49:47.912Z,23.65
2023-03-22T20:53:47.891Z,23.68
2023-03-22T20:57:47.838Z,23.68
2023-03-22T21:01:47.840Z,23.64
2023-03-22T21:05:47.788Z,23.70
2023-03-22T21:09:47.748Z,23.66
2023-03-22T21:13:47.706Z,23.69
2023-03-22T21:17:47.858Z,23.66
2023-03-22T21:21:49.572Z,23.62
2023-03-22T21:25:47.609Z,23.64
2023-03-22T21:29:47.581Z,23.68
2023-03-22T21:33:47.548Z,23.67
2023-03-22T21:37:47.517Z,23.67
2023-03-22T21:41:47.481Z,23.70
2023-03-22T21:45:47.528Z,23.64
2023-03-22T21:49:47.428Z,23.66
2023-03-22T21:53:47.371Z,23.74
2023-03-22T21:57:47.352Z,23.73
2023-03-22T22:01:47.387Z,23.72
2023-03-22T22:05:47.503Z,23.72
2023-03-22T22:09:47.596Z,23.71
2023-03-22T22:13:47.747Z,23.73
2023-03-22T22:17:47.885Z,23.73
2023-03-22T22:21:48.025Z,23.74
2023-03-22T22:25:48.156Z,23.75
2023-03-22T22:29:48.265Z,23.71
2023-03-22T22:33:48.338Z,23.81
2023-03-22T22:37:48.464Z,23.78
2023-03-22T22:41:48.612Z,23.74
2023-03-22T22:45:48.835Z,23.75
2023-03-22T22:49:48.955Z,23.73
2023-03-22T22:53:49.148Z,23.70
2023-03-22T22:57:49.276Z,23.75
2023-03-22T23:01:49.347Z,23.74
2023-03-22T23:05:49.433Z,23.71
2023-03-22T23:09:49.501Z,23.70
2023-03-22T23:13:49.595Z,23.75
2023-03-22T23:17:53.564Z,23.71
2023-03-22T23:21:50.696Z,23.68
2023-03-22T23:25:49.655Z,23.73
2023-03-22T23:29:49.853Z,23.71
2023-03-22T23:33:49.659Z,23.74
2023-03-22T23:37:49.687Z,23.67
2023-03-22T23:41:49.788Z,23.77
2023-03-22T23:45:49.898Z,23.75
2023-03-22T23:49:49.986Z,23.78
2023-03-22T23:53:50.135Z,23.74
2023-03-22T23:57:50.283Z,23.75
